sensor_id;sensor_type;location;lat;lon;timestamp;P1;durP1;ratioP1;P2;durP2;ratioP2
71777;SDS011;59609;52.430;4.668;2022-12-29T00:01:42;3.63;;;3.33;;
71777;SDS011;59609;52.430;4.668;2022-12-29T00:04:09;3.83;;;3.53;;
71777;SDS011;59609;52.430;4.668;2022-12-29T00:06:37;4.40;;;3.10;;
71777;SDS011;59609;52.430;4.668;2022-12-29T00:09:02;3.40;;;3.10;;
71777;SDS011;59609;52.430;4.668;2022-12-29T00:11:28;3.35;;;2.95;;
71777;SDS011;59609;52.430;4.668;2022-12-29T00:13:53;3.58;;;3.25;;
71777;SDS011;59609;52.430;4.668;2022-12-29T00:16:40;2.80;;;2.60;;
71777;SDS011;59609;52.430;4.668;2022-12-29T00:19:06;4.10;;;3.78;;
71777;SDS011;59609;52.430;4.668;2022-12-29T00:21:52;3.42;;;3.05;;
71777;SDS011;59609;52.430;4.668;2022-12-29T00:24:35;3.55;;;2.78;;
71777;SDS011;59609;52.430;4.668;2022-12-29T00:27:20;4.05;;;3.20;;
71777;SDS011;59609;52.430;4.668;2022-12-29T00:30:11;6.30;;;3.28;;
71777;SDS011;59609;52.430;4.668;2022-12-29T00:32:56;4.60;;;3.03;;
71777;SDS011;59609;52.430;4.668;2022-12-29T00:35:44;3.28;;;2.97;;
71777;SDS011;59609;52.430;4.668;2022-12-29T00:38:15;4.35;;;3.13;;
71777;SDS011;59609;52.430;4.668;2022-12-29T00:41:00;5.55;;;3.22;;
71777;SDS011;59609;52.430;4.668;2022-12-29T00:43:44;3.75;;;2.92;;
71777;SDS011;59609;52.430;4.668;2022-12-29T00:46:27;3.95;;;2.80;;
71777;SDS011;59609;52.430;4.668;2022-12-29T00:48:53;4.05;;;2.88;;
71777;SDS011;59609;52.430;4.668;2022-12-29T00:51:37;2.90;;;2.63;;
71777;SDS011;59609;52.430;4.668;2022-12-29T00:54:02;5.15;;;2.22;;
71777;SDS011;59609;52.430;4.668;2022-12-29T00:56:27;3.25;;;2.30;;
71777;SDS011;59609;52.430;4.668;2022-12-29T00:58:53;3.85;;;2.35;;
71777;SDS011;59609;52.430;4.668;2022-12-29T01:01:18;2.95;;;2.17;;
71777;SDS011;59609;52.430;4.668;2022-12-29T01:03:43;3.05;;;2.10;;
71777;SDS011;59609;52.430;4.668;2022-12-29T01:06:11;3.20;;;1.95;;
71777;SDS011;59609;52.430;4.668;2022-12-29T01:08:37;2.30;;;2.20;;
71777;SDS011;59609;52.430;4.668;2022-12-29T01:11:09;2.20;;;2.00;;
71777;SDS011;59609;52.430;4.668;2022-12-29T01:13:36;2.00;;;1.90;;
71777;SDS011;59609;52.430;4.668;2022-12-29T01:16:03;2.13;;;1.70;;
71777;SDS011;59609;52.430;4.668;2022-12-29T01:18:29;2.42;;;1.70;;
71777;SDS011;59609;52.430;4.668;2022-12-29T01:21:05;2.15;;;1.83;;
71777;SDS011;59609;52.430;4.668;2022-12-29T01:23:31;2.28;;;2.08;;
71777;SDS011;59609;52.430;4.668;2022-12-29T01:25:57;5.13;;;1.98;;
71777;SDS011;59609;52.430;4.668;2022-12-29T01:28:32;3.08;;;2.55;;
71777;SDS011;59609;52.430;4.668;2022-12-29T01:30:59;1.90;;;1.80;;
71777;SDS011;59609;52.430;4.668;2022-12-29T01:33:25;2.53;;;1.73;;
71777;SDS011;59609;52.430;4.668;2022-12-29T01:35:50;2.60;;;1.42;;
71777;SDS011;59609;52.430;4.668;2022-12-29T01:38:16;2.25;;;1.10;;
71777;SDS011;59609;52.430;4.668;2022-12-29T01:40:45;1.60;;;1.40;;
71777;SDS011;59609;52.430;4.668;2022-12-29T01:43:12;1.95;;;1.60;;
71777;SDS011;59609;52.430;4.668;2022-12-29T01:45:40;2.13;;;1.85;;
71777;SDS011;59609;52.430;4.668;2022-12-29T01:48:14;7.28;;;1.83;;
71777;SDS011;59609;52.430;4.668;2022-12-29T01:50:48;2.85;;;1.55;;
71777;SDS011;59609;52.430;4.668;2022-12-29T01:53:21;4.90;;;1.60;;
71777;SDS011;59609;52.430;4.668;2022-12-29T01:55:53;8.25;;;2.65;;
71777;SDS011;59609;52.430;4.668;2022-12-29T01:58:24;3.72;;;1.55;;
71777;SDS011;59609;52.430;4.668;2022-12-29T02:00:54;7.80;;;2.00;;
71777;SDS011;59609;52.430;4.668;2022-12-29T02:03:19;3.38;;;1.63;;
71777;SDS011;59609;52.430;4.668;2022-12-29T02:08:21;7.00;;;1.52;;
71777;SDS011;59609;52.430;4.668;2022-12-29T02:10:49;6.10;;;1.80;;
71777;SDS011;59609;52.430;4.668;2022-12-29T02:13:15;8.23;;;2.13;;
71777;SDS011;59609;52.430;4.668;2022-12-29T02:18:27;6.90;;;1.52;;
71777;SDS011;59609;52.430;4.668;2022-12-29T02:23:45;5.10;;;2.30;;
71777;SDS011;59609;52.430;4.668;2022-12-29T02:26:16;10.05;;;2.35;;
71777;SDS011;59609;52.430;4.668;2022-12-29T02:29:06;5.45;;;1.48;;
71777;SDS011;59609;52.430;4.668;2022-12-29T02:42:50;9.18;;;1.73;;
71777;SDS011;59609;52.430;4.668;2022-12-29T02:51:03;9.82;;;2.78;;
71777;SDS011;59609;52.430;4.668;2022-12-29T02:53:33;18.13;;;2.10;;
71777;SDS011;59609;52.430;4.668;2022-12-29T02:56:19;6.50;;;2.30;;
71777;SDS011;59609;52.430;4.668;2022-12-29T02:58:45;6.80;;;1.80;;
71777;SDS011;59609;52.430;4.668;2022-12-29T03:04:09;8.82;;;1.65;;
71777;SDS011;59609;52.430;4.668;2022-12-29T03:07:00;15.45;;;3.03;;
71777;SDS011;59609;52.430;4.668;2022-12-29T03:15:37;9.20;;;1.70;;
71777;SDS011;59609;52.430;4.668;2022-12-29T03:18:31;15.40;;;3.08;;
71777;SDS011;59609;52.430;4.668;2022-12-29T03:24:09;10.95;;;2.60;;
71777;SDS011;59609;52.430;4.668;2022-12-29T03:26:36;7.25;;;2.50;;
71777;SDS011;59609;52.430;4.668;2022-12-29T03:29:02;8.75;;;2.15;;
71777;SDS011;59609;52.430;4.668;2022-12-29T03:31:31;14.57;;;2.88;;
71777;SDS011;59609;52.430;4.668;2022-12-29T03:33:57;13.18;;;2.33;;
71777;SDS011;59609;52.430;4.668;2022-12-29T03:36:26;9.25;;;2.58;;
71777;SDS011;59609;52.430;4.668;2022-12-29T03:39:02;15.13;;;2.97;;
71777;SDS011;59609;52.430;4.668;2022-12-29T03:41:36;19.48;;;3.33;;
71777;SDS011;59609;52.430;4.668;2022-12-29T03:46:31;27.27;;;3.22;;
71777;SDS011;59609;52.430;4.668;2022-12-29T03:48:56;13.85;;;2.15;;
71777;SDS011;59609;52.430;4.668;2022-12-29T03:51:22;15.50;;;2.47;;
71777;SDS011;59609;52.430;4.668;2022-12-29T03:53:47;10.65;;;2.00;;
71777;SDS011;59609;52.430;4.668;2022-12-29T03:56:12;18.77;;;3.45;;
71777;SDS011;59609;52.430;4.668;2022-12-29T03:58:38;13.85;;;3.17;;
71777;SDS011;59609;52.430;4.668;2022-12-29T04:01:03;11.82;;;2.83;;
71777;SDS011;59609;52.430;4.668;2022-12-29T04:03:28;9.23;;;2.72;;
71777;SDS011;59609;52.430;4.668;2022-12-29T04:05:54;23.00;;;3.83;;
71777;SDS011;59609;52.430;4.668;2022-12-29T04:08:19;16.63;;;2.58;;
71777;SDS011;59609;52.430;4.668;2022-12-29T04:10:44;11.15;;;2.47;;
71777;SDS011;59609;52.430;4.668;2022-12-29T04:13:10;17.52;;;3.85;;
71777;SDS011;59609;52.430;4.668;2022-12-29T04:15:35;11.23;;;2.72;;
71777;SDS011;59609;52.430;4.668;2022-12-29T04:18:01;10.02;;;2.10;;
71777;SDS011;59609;52.430;4.668;2022-12-29T04:20:26;9.98;;;2.50;;
71777;SDS011;59609;52.430;4.668;2022-12-29T04:23:10;8.95;;;1.95;;
71777;SDS011;59609;52.430;4.668;2022-12-29T04:25:36;11.93;;;2.50;;
71777;SDS011;59609;52.430;4.668;2022-12-29T04:28:01;11.82;;;2.42;;
71777;SDS011;59609;52.430;4.668;2022-12-29T04:30:27;9.18;;;2.40;;
71777;SDS011;59609;52.430;4.668;2022-12-29T04:32:52;9.00;;;2.95;;
71777;SDS011;59609;52.430;4.668;2022-12-29T04:35:18;10.85;;;2.90;;
71777;SDS011;59609;52.430;4.668;2022-12-29T04:37:43;14.50;;;3.55;;
71777;SDS011;59609;52.430;4.668;2022-12-29T04:40:08;16.92;;;2.58;;
71777;SDS011;59609;52.430;4.668;2022-12-29T04:42:34;13.32;;;2.65;;
71777;SDS011;59609;52.430;4.668;2022-12-29T04:45:00;19.15;;;2.85;;
71777;SDS011;59609;52.430;4.668;2022-12-29T04:47:25;13.65;;;2.83;;
71777;SDS011;59609;52.430;4.668;2022-12-29T04:49:50;13.15;;;3.33;;
71777;SDS011;59609;52.430;4.668;2022-12-29T04:52:15;14.00;;;2.75;;
71777;SDS011;59609;52.430;4.668;2022-12-29T04:54:41;18.40;;;2.85;;
71777;SDS011;59609;52.430;4.668;2022-12-29T04:57:06;16.25;;;3.25;;
71777;SDS011;59609;52.430;4.668;2022-12-29T04:59:31;13.85;;;2.50;;
71777;SDS011;59609;52.430;4.668;2022-12-29T05:01:57;12.13;;;2.40;;
71777;SDS011;59609;52.430;4.668;2022-12-29T05:04:22;14.23;;;2.60;;
71777;SDS011;59609;52.430;4.668;2022-12-29T05:06:47;11.23;;;2.30;;
71777;SDS011;59609;52.430;4.668;2022-12-29T05:09:13;10.30;;;2.47;;
71777;SDS011;59609;52.430;4.668;2022-12-29T05:11:38;12.95;;;2.22;;
71777;SDS011;59609;52.430;4.668;2022-12-29T05:14:04;14.38;;;2.67;;
71777;SDS011;59609;52.430;4.668;2022-12-29T05:16:29;24.08;;;4.18;;
71777;SDS011;59609;52.430;4.668;2022-12-29T05:18:55;13.38;;;3.15;;
71777;SDS011;59609;52.430;4.668;2022-12-29T05:21:20;18.20;;;2.15;;
71777;SDS011;59609;52.430;4.668;2022-12-29T05:23:45;13.90;;;2.22;;
71777;SDS011;59609;52.430;4.668;2022-12-29T05:26:10;14.00;;;3.45;;
71777;SDS011;59609;52.430;4.668;2022-12-29T05:28:36;14.40;;;2.63;;
71777;SDS011;59609;52.430;4.668;2022-12-29T05:31:01;12.75;;;3.30;;
71777;SDS011;59609;52.430;4.668;2022-12-29T05:33:26;13.90;;;2.58;;
71777;SDS011;59609;52.430;4.668;2022-12-29T05:35:52;18.17;;;3.10;;
71777;SDS011;59609;52.430;4.668;2022-12-29T05:38:17;16.17;;;2.17;;
71777;SDS011;59609;52.430;4.668;2022-12-29T05:40:43;20.85;;;2.55;;
71777;SDS011;59609;52.430;4.668;2022-12-29T05:43:08;16.75;;;3.30;;
71777;SDS011;59609;52.430;4.668;2022-12-29T05:45:35;19.77;;;3.08;;
71777;SDS011;59609;52.430;4.668;2022-12-29T05:48:00;15.15;;;2.83;;
71777;SDS011;59609;52.430;4.668;2022-12-29T05:50:26;16.52;;;2.88;;
71777;SDS011;59609;52.430;4.668;2022-12-29T05:52:51;10.48;;;2.50;;
71777;SDS011;59609;52.430;4.668;2022-12-29T05:55:17;11.60;;;2.45;;
71777;SDS011;59609;52.430;4.668;2022-12-29T05:57:42;15.55;;;2.67;;
71777;SDS011;59609;52.430;4.668;2022-12-29T06:00:08;16.75;;;2.88;;
71777;SDS011;59609;52.430;4.668;2022-12-29T06:02:34;20.45;;;2.78;;
71777;SDS011;59609;52.430;4.668;2022-12-29T06:04:59;17.83;;;3.65;;
71777;SDS011;59609;52.430;4.668;2022-12-29T06:07:24;14.68;;;3.40;;
71777;SDS011;59609;52.430;4.668;2022-12-29T06:09:50;18.65;;;3.22;;
71777;SDS011;59609;52.430;4.668;2022-12-29T06:12:15;17.35;;;3.30;;
71777;SDS011;59609;52.430;4.668;2022-12-29T06:14:41;13.82;;;3.03;;
71777;SDS011;59609;52.430;4.668;2022-12-29T06:17:07;18.58;;;3.35;;
71777;SDS011;59609;52.430;4.668;2022-12-29T06:19:32;17.77;;;3.47;;
71777;SDS011;59609;52.430;4.668;2022-12-29T06:22:00;11.68;;;2.40;;
71777;SDS011;59609;52.430;4.668;2022-12-29T06:24:25;22.40;;;2.65;;
71777;SDS011;59609;52.430;4.668;2022-12-29T06:26:50;15.38;;;3.35;;
71777;SDS011;59609;52.430;4.668;2022-12-29T06:29:15;15.38;;;2.60;;
71777;SDS011;59609;52.430;4.668;2022-12-29T06:31:42;14.75;;;3.65;;
71777;SDS011;59609;52.430;4.668;2022-12-29T06:34:10;18.00;;;3.17;;
71777;SDS011;59609;52.430;4.668;2022-12-29T06:36:36;12.40;;;3.17;;
71777;SDS011;59609;52.430;4.668;2022-12-29T06:39:01;12.20;;;3.25;;
71777;SDS011;59609;52.430;4.668;2022-12-29T06:41:26;13.00;;;2.78;;
71777;SDS011;59609;52.430;4.668;2022-12-29T06:43:52;12.57;;;2.28;;
71777;SDS011;59609;52.430;4.668;2022-12-29T06:46:17;19.33;;;2.80;;
71777;SDS011;59609;52.430;4.668;2022-12-29T06:48:42;17.17;;;2.95;;
71777;SDS011;59609;52.430;4.668;2022-12-29T06:51:08;15.32;;;3.05;;
71777;SDS011;59609;52.430;4.668;2022-12-29T06:53:33;12.05;;;3.88;;
71777;SDS011;59609;52.430;4.668;2022-12-29T06:55:59;17.10;;;3.10;;
71777;SDS011;59609;52.430;4.668;2022-12-29T06:58:24;16.10;;;3.15;;
71777;SDS011;59609;52.430;4.668;2022-12-29T07:00:49;24.75;;;3.28;;
71777;SDS011;59609;52.430;4.668;2022-12-29T07:03:14;13.75;;;2.85;;
71777;SDS011;59609;52.430;4.668;2022-12-29T07:05:40;18.92;;;3.13;;
71777;SDS011;59609;52.430;4.668;2022-12-29T07:08:05;20.73;;;2.47;;
71777;SDS011;59609;52.430;4.668;2022-12-29T07:10:31;19.80;;;3.03;;
71777;SDS011;59609;52.430;4.668;2022-12-29T07:12:56;18.60;;;3.33;;
71777;SDS011;59609;52.430;4.668;2022-12-29T07:15:22;13.70;;;2.38;;
71777;SDS011;59609;52.430;4.668;2022-12-29T07:17:47;15.60;;;3.08;;
71777;SDS011;59609;52.430;4.668;2022-12-29T07:20:14;14.80;;;2.72;;
71777;SDS011;59609;52.430;4.668;2022-12-29T07:22:39;15.30;;;2.78;;
71777;SDS011;59609;52.430;4.668;2022-12-29T07:25:05;24.92;;;4.78;;
71777;SDS011;59609;52.430;4.668;2022-12-29T07:27:30;13.77;;;2.70;;
71777;SDS011;59609;52.430;4.668;2022-12-29T07:29:56;17.52;;;2.83;;
71777;SDS011;59609;52.430;4.668;2022-12-29T07:32:21;22.25;;;3.75;;
71777;SDS011;59609;52.430;4.668;2022-12-29T07:34:47;24.27;;;3.60;;
71777;SDS011;59609;52.430;4.668;2022-12-29T07:37:14;21.75;;;3.08;;
71777;SDS011;59609;52.430;4.668;2022-12-29T07:39:40;19.95;;;2.40;;
71777;SDS011;59609;52.430;4.668;2022-12-29T07:42:05;25.30;;;4.38;;
71777;SDS011;59609;52.430;4.668;2022-12-29T07:44:31;18.88;;;3.95;;
71777;SDS011;59609;52.430;4.668;2022-12-29T07:46:56;19.73;;;2.28;;
71777;SDS011;59609;52.430;4.668;2022-12-29T07:49:21;19.40;;;3.40;;
71777;SDS011;59609;52.430;4.668;2022-12-29T07:51:47;14.02;;;3.08;;
71777;SDS011;59609;52.430;4.668;2022-12-29T07:54:12;13.60;;;2.75;;
71777;SDS011;59609;52.430;4.668;2022-12-29T07:56:37;18.90;;;3.78;;
71777;SDS011;59609;52.430;4.668;2022-12-29T07:59:03;15.40;;;2.33;;
71777;SDS011;59609;52.430;4.668;2022-12-29T08:01:29;24.50;;;3.45;;
71777;SDS011;59609;52.430;4.668;2022-12-29T08:03:54;24.10;;;3.95;;
71777;SDS011;59609;52.430;4.668;2022-12-29T08:06:19;23.50;;;2.63;;
71777;SDS011;59609;52.430;4.668;2022-12-29T08:08:45;17.30;;;3.08;;
71777;SDS011;59609;52.430;4.668;2022-12-29T08:11:10;14.23;;;2.95;;
71777;SDS011;59609;52.430;4.668;2022-12-29T08:13:36;18.65;;;2.42;;
71777;SDS011;59609;52.430;4.668;2022-12-29T08:16:01;17.00;;;2.40;;
71777;SDS011;59609;52.430;4.668;2022-12-29T08:18:27;20.17;;;2.85;;
71777;SDS011;59609;52.430;4.668;2022-12-29T08:20:52;14.55;;;2.67;;
71777;SDS011;59609;52.430;4.668;2022-12-29T08:23:17;10.57;;;2.40;;
71777;SDS011;59609;52.430;4.668;2022-12-29T08:25:43;17.17;;;3.22;;
71777;SDS011;59609;52.430;4.668;2022-12-29T08:28:08;10.70;;;2.67;;
71777;SDS011;59609;52.430;4.668;2022-12-29T08:30:33;13.88;;;2.33;;
71777;SDS011;59609;52.430;4.668;2022-12-29T08:32:59;19.05;;;2.83;;
71777;SDS011;59609;52.430;4.668;2022-12-29T08:35:24;11.45;;;2.40;;
71777;SDS011;59609;52.430;4.668;2022-12-29T08:37:49;19.23;;;1.80;;
71777;SDS011;59609;52.430;4.668;2022-12-29T08:40:15;8.50;;;2.38;;
71777;SDS011;59609;52.430;4.668;2022-12-29T08:42:40;9.98;;;2.88;;
71777;SDS011;59609;52.430;4.668;2022-12-29T08:45:06;18.42;;;2.55;;
71777;SDS011;59609;52.430;4.668;2022-12-29T08:47:32;14.15;;;2.28;;
71777;SDS011;59609;52.430;4.668;2022-12-29T08:49:58;19.85;;;2.58;;
71777;SDS011;59609;52.430;4.668;2022-12-29T08:52:23;22.17;;;2.53;;
71777;SDS011;59609;52.430;4.668;2022-12-29T08:54:48;17.38;;;3.35;;
71777;SDS011;59609;52.430;4.668;2022-12-29T08:57:14;18.10;;;3.78;;
71777;SDS011;59609;52.430;4.668;2022-12-29T08:59:39;18.60;;;2.70;;
71777;SDS011;59609;52.430;4.668;2022-12-29T09:02:05;17.55;;;3.45;;
71777;SDS011;59609;52.430;4.668;2022-12-29T09:04:30;21.45;;;3.92;;
71777;SDS011;59609;52.430;4.668;2022-12-29T09:06:56;22.05;;;2.53;;
71777;SDS011;59609;52.430;4.668;2022-12-29T09:09:21;18.15;;;2.95;;
71777;SDS011;59609;52.430;4.668;2022-12-29T09:11:46;17.08;;;3.03;;
71777;SDS011;59609;52.430;4.668;2022-12-29T09:14:12;15.55;;;3.08;;
71777;SDS011;59609;52.430;4.668;2022-12-29T09:16:37;18.35;;;3.53;;
71777;SDS011;59609;52.430;4.668;2022-12-29T09:19:04;20.45;;;2.83;;
71777;SDS011;59609;52.430;4.668;2022-12-29T09:21:29;14.25;;;3.03;;
71777;SDS011;59609;52.430;4.668;2022-12-29T09:23:55;21.20;;;3.63;;
71777;SDS011;59609;52.430;4.668;2022-12-29T09:26:20;24.63;;;3.22;;
71777;SDS011;59609;52.430;4.668;2022-12-29T09:28:46;23.25;;;3.45;;
71777;SDS011;59609;52.430;4.668;2022-12-29T09:31:12;16.35;;;3.65;;
71777;SDS011;59609;52.430;4.668;2022-12-29T09:33:37;27.77;;;3.50;;
71777;SDS011;59609;52.430;4.668;2022-12-29T09:36:03;21.98;;;3.80;;
71777;SDS011;59609;52.430;4.668;2022-12-29T09:38:28;26.95;;;4.78;;
71777;SDS011;59609;52.430;4.668;2022-12-29T09:41:18;22.67;;;4.50;;
71777;SDS011;59609;52.430;4.668;2022-12-29T09:49:11;23.83;;;4.00;;
71777;SDS011;59609;52.430;4.668;2022-12-29T09:51:43;33.60;;;4.25;;
71777;SDS011;59609;52.430;4.668;2022-12-29T09:59:21;27.15;;;4.22;;
71777;SDS011;59609;52.430;4.668;2022-12-29T10:01:54;37.63;;;4.20;;
71777;SDS011;59609;52.430;4.668;2022-12-29T10:04:31;31.20;;;4.43;;
71777;SDS011;59609;52.430;4.668;2022-12-29T10:25:57;22.55;;;3.53;;
71777;SDS011;59609;52.430;4.668;2022-12-29T10:31:17;23.02;;;3.28;;
71777;SDS011;59609;52.430;4.668;2022-12-29T10:33:48;19.08;;;2.53;;
71777;SDS011;59609;52.430;4.668;2022-12-29T10:36:19;18.25;;;2.88;;
71777;SDS011;59609;52.430;4.668;2022-12-29T10:39:14;11.48;;;2.03;;
71777;SDS011;59609;52.430;4.668;2022-12-29T10:41:48;12.32;;;2.95;;
71777;SDS011;59609;52.430;4.668;2022-12-29T10:44:18;21.92;;;2.85;;
71777;SDS011;59609;52.430;4.668;2022-12-29T10:46:44;13.23;;;2.08;;
71777;SDS011;59609;52.430;4.668;2022-12-29T10:49:20;13.95;;;2.67;;
71777;SDS011;59609;52.430;4.668;2022-12-29T10:51:46;15.77;;;2.42;;
71777;SDS011;59609;52.430;4.668;2022-12-29T10:56:47;15.55;;;2.10;;
71777;SDS011;59609;52.430;4.668;2022-12-29T10:59:19;12.30;;;2.33;;
71777;SDS011;59609;52.430;4.668;2022-12-29T11:02:04;10.52;;;1.60;;
71777;SDS011;59609;52.430;4.668;2022-12-29T11:04:57;13.48;;;1.83;;
71777;SDS011;59609;52.430;4.668;2022-12-29T11:07:29;21.10;;;2.58;;
71777;SDS011;59609;52.430;4.668;2022-12-29T11:09:55;7.43;;;1.75;;
71777;SDS011;59609;52.430;4.668;2022-12-29T11:12:40;9.20;;;1.85;;
71777;SDS011;59609;52.430;4.668;2022-12-29T11:17:30;8.10;;;1.70;;
71777;SDS011;59609;52.430;4.668;2022-12-29T11:20:31;7.10;;;1.45;;
71777;SDS011;59609;52.430;4.668;2022-12-29T11:23:05;13.15;;;1.90;;
71777;SDS011;59609;52.430;4.668;2022-12-29T11:28:35;10.38;;;1.73;;
71777;SDS011;59609;52.430;4.668;2022-12-29T11:31:03;8.40;;;1.95;;
71777;SDS011;59609;52.430;4.668;2022-12-29T11:33:30;8.32;;;1.55;;
71777;SDS011;59609;52.430;4.668;2022-12-29T11:36:05;11.35;;;1.45;;
71777;SDS011;59609;52.430;4.668;2022-12-29T11:38:36;9.82;;;2.30;;
71777;SDS011;59609;52.430;4.668;2022-12-29T11:41:11;5.97;;;1.42;;
71777;SDS011;59609;52.430;4.668;2022-12-29T11:43:40;14.75;;;2.58;;
71777;SDS011;59609;52.430;4.668;2022-12-29T11:46:12;8.85;;;2.08;;
71777;SDS011;59609;52.430;4.668;2022-12-29T11:48:41;16.20;;;2.08;;
71777;SDS011;59609;52.430;4.668;2022-12-29T11:51:07;24.08;;;4.82;;
71777;SDS011;59609;52.430;4.668;2022-12-29T11:56:22;17.23;;;2.20;;
71777;SDS011;59609;52.430;4.668;2022-12-29T11:58:58;10.27;;;2.22;;
71777;SDS011;59609;52.430;4.668;2022-12-29T12:02:26;12.40;;;1.50;;
71777;SDS011;59609;52.430;4.668;2022-12-29T12:04:54;14.05;;;1.92;;
71777;SDS011;59609;52.430;4.668;2022-12-29T12:08:01;17.15;;;2.20;;
71777;SDS011;59609;52.430;4.668;2022-12-29T12:10:23;16.15;;;2.08;;
71777;SDS011;59609;52.430;4.668;2022-12-29T12:15:44;12.93;;;1.90;;
71777;SDS011;59609;52.430;4.668;2022-12-29T12:18:17;13.88;;;1.90;;
71777;SDS011;59609;52.430;4.668;2022-12-29T12:20:52;12.57;;;2.53;;
71777;SDS011;59609;52.430;4.668;2022-12-29T12:23:27;9.95;;;1.83;;
71777;SDS011;59609;52.430;4.668;2022-12-29T12:26:13;11.20;;;2.17;;
71777;SDS011;59609;52.430;4.668;2022-12-29T12:34:13;7.72;;;1.75;;
71777;SDS011;59609;52.430;4.668;2022-12-29T12:36:51;12.30;;;1.75;;
71777;SDS011;59609;52.430;4.668;2022-12-29T12:56:11;12.27;;;1.60;;
71777;SDS011;59609;52.430;4.668;2022-12-29T13:06:52;10.05;;;2.10;;
71777;SDS011;59609;52.430;4.668;2022-12-29T13:09:54;9.43;;;2.20;;
71777;SDS011;59609;52.430;4.668;2022-12-29T13:12:38;11.23;;;1.70;;
71777;SDS011;59609;52.430;4.668;2022-12-29T13:20:26;14.63;;;1.92;;
71777;SDS011;59609;52.430;4.668;2022-12-29T13:25:47;7.65;;;0.98;;
71777;SDS011;59609;52.430;4.668;2022-12-29T13:31:00;15.00;;;2.05;;
71777;SDS011;59609;52.430;4.668;2022-12-29T13:36:05;17.38;;;2.03;;
71777;SDS011;59609;52.430;4.668;2022-12-29T13:38:43;18.10;;;2.92;;
71777;SDS011;59609;52.430;4.668;2022-12-29T13:41:24;13.98;;;2.53;;
71777;SDS011;59609;52.430;4.668;2022-12-29T13:43:53;8.15;;;1.73;;
71777;SDS011;59609;52.430;4.668;2022-12-29T13:46:21;10.05;;;2.17;;
71777;SDS011;59609;52.430;4.668;2022-12-29T13:48:55;16.10;;;3.33;;
71777;SDS011;59609;52.430;4.668;2022-12-29T13:51:26;11.20;;;1.83;;
71777;SDS011;59609;52.430;4.668;2022-12-29T13:56:38;9.55;;;2.03;;
71777;SDS011;59609;52.430;4.668;2022-12-29T14:04:34;8.13;;;1.80;;
71777;SDS011;59609;52.430;4.668;2022-12-29T14:07:02;12.30;;;1.70;;
71777;SDS011;59609;52.430;4.668;2022-12-29T14:12:28;8.57;;;1.98;;
71777;SDS011;59609;52.430;4.668;2022-12-29T14:17:29;14.38;;;2.22;;
71777;SDS011;59609;52.430;4.668;2022-12-29T14:19:54;11.90;;;1.63;;
71777;SDS011;59609;52.430;4.668;2022-12-29T14:22:27;14.57;;;2.10;;
71777;SDS011;59609;52.430;4.668;2022-12-29T14:24:53;15.30;;;1.90;;
71777;SDS011;59609;52.430;4.668;2022-12-29T14:29:46;12.40;;;2.00;;
71777;SDS011;59609;52.430;4.668;2022-12-29T14:40:14;15.85;;;2.70;;
71777;SDS011;59609;52.430;4.668;2022-12-29T14:42:43;13.93;;;2.35;;
71777;SDS011;59609;52.430;4.668;2022-12-29T14:47:42;16.77;;;2.40;;
71777;SDS011;59609;52.430;4.668;2022-12-29T14:52:54;19.75;;;2.53;;
71777;SDS011;59609;52.430;4.668;2022-12-29T15:00:58;22.55;;;2.67;;
71777;SDS011;59609;52.430;4.668;2022-12-29T15:06:10;11.52;;;2.00;;
71777;SDS011;59609;52.430;4.668;2022-12-29T15:08:40;20.13;;;2.40;;
71777;SDS011;59609;52.430;4.668;2022-12-29T15:11:19;11.30;;;2.20;;
71777;SDS011;59609;52.430;4.668;2022-12-29T15:13:47;21.45;;;4.60;;
71777;SDS011;59609;52.430;4.668;2022-12-29T15:18:54;16.85;;;2.22;;
71777;SDS011;59609;52.430;4.668;2022-12-29T15:21:41;19.75;;;2.30;;
71777;SDS011;59609;52.430;4.668;2022-12-29T15:24:08;12.18;;;2.05;;
71777;SDS011;59609;52.430;4.668;2022-12-29T15:26:36;19.48;;;2.78;;
71777;SDS011;59609;52.430;4.668;2022-12-29T15:29:03;19.95;;;2.58;;
71777;SDS011;59609;52.430;4.668;2022-12-29T15:31:29;19.73;;;3.45;;
71777;SDS011;59609;52.430;4.668;2022-12-29T15:33:55;15.13;;;2.00;;
71777;SDS011;59609;52.430;4.668;2022-12-29T15:36:28;18.08;;;2.17;;
71777;SDS011;59609;52.430;4.668;2022-12-29T15:39:01;21.30;;;2.63;;
71777;SDS011;59609;52.430;4.668;2022-12-29T15:44:54;14.45;;;2.97;;
71777;SDS011;59609;52.430;4.668;2022-12-29T15:47:21;10.73;;;1.85;;
71777;SDS011;59609;52.430;4.668;2022-12-29T15:49:50;13.20;;;2.33;;
71777;SDS011;59609;52.430;4.668;2022-12-29T15:52:19;18.13;;;2.88;;
71777;SDS011;59609;52.430;4.668;2022-12-29T15:54:46;14.35;;;1.95;;
71777;SDS011;59609;52.430;4.668;2022-12-29T15:57:25;18.98;;;1.88;;
71777;SDS011;59609;52.430;4.668;2022-12-29T15:59:53;13.85;;;2.58;;
71777;SDS011;59609;52.430;4.668;2022-12-29T16:02:19;12.32;;;2.35;;
71777;SDS011;59609;52.430;4.668;2022-12-29T16:04:46;14.13;;;1.85;;
71777;SDS011;59609;52.430;4.668;2022-12-29T16:07:27;18.73;;;3.00;;
71777;SDS011;59609;52.430;4.668;2022-12-29T16:09:55;15.38;;;3.08;;
71777;SDS011;59609;52.430;4.668;2022-12-29T16:12:40;9.98;;;1.55;;
71777;SDS011;59609;52.430;4.668;2022-12-29T16:15:06;20.02;;;2.88;;
71777;SDS011;59609;52.430;4.668;2022-12-29T16:17:42;18.73;;;2.38;;
71777;SDS011;59609;52.430;4.668;2022-12-29T16:22:45;18.67;;;2.53;;
71777;SDS011;59609;52.430;4.668;2022-12-29T16:27:48;22.83;;;4.15;;
71777;SDS011;59609;52.430;4.668;2022-12-29T16:30:21;16.65;;;2.65;;
71777;SDS011;59609;52.430;4.668;2022-12-29T16:32:52;16.77;;;1.88;;
71777;SDS011;59609;52.430;4.668;2022-12-29T16:35:27;15.38;;;1.80;;
71777;SDS011;59609;52.430;4.668;2022-12-29T16:40:58;13.45;;;2.35;;
71777;SDS011;59609;52.430;4.668;2022-12-29T16:48:33;12.97;;;2.30;;
71777;SDS011;59609;52.430;4.668;2022-12-29T16:51:13;22.63;;;2.25;;
71777;SDS011;59609;52.430;4.668;2022-12-29T16:56:16;15.30;;;2.58;;
71777;SDS011;59609;52.430;4.668;2022-12-29T16:58:51;12.90;;;2.42;;
71777;SDS011;59609;52.430;4.668;2022-12-29T17:01:23;14.40;;;1.65;;
71777;SDS011;59609;52.430;4.668;2022-12-29T17:03:59;15.20;;;2.45;;
71777;SDS011;59609;52.430;4.668;2022-12-29T17:06:29;13.18;;;1.95;;
71777;SDS011;59609;52.430;4.668;2022-12-29T17:08:55;14.32;;;2.30;;
71777;SDS011;59609;52.430;4.668;2022-12-29T17:11:26;19.63;;;2.38;;
71777;SDS011;59609;52.430;4.668;2022-12-29T17:14:16;21.38;;;3.92;;
71777;SDS011;59609;52.430;4.668;2022-12-29T17:16:58;17.80;;;2.30;;
71777;SDS011;59609;52.430;4.668;2022-12-29T17:22:00;15.88;;;2.92;;
71777;SDS011;59609;52.430;4.668;2022-12-29T17:24:25;17.00;;;2.33;;
71777;SDS011;59609;52.430;4.668;2022-12-29T17:26:53;23.05;;;2.47;;
71777;SDS011;59609;52.430;4.668;2022-12-29T17:29:23;13.68;;;2.65;;
71777;SDS011;59609;52.430;4.668;2022-12-29T17:31:58;14.02;;;2.13;;
71777;SDS011;59609;52.430;4.668;2022-12-29T17:34:25;16.05;;;2.25;;
71777;SDS011;59609;52.430;4.668;2022-12-29T17:36:51;14.82;;;2.30;;
71777;SDS011;59609;52.430;4.668;2022-12-29T17:39:16;19.50;;;2.60;;
71777;SDS011;59609;52.430;4.668;2022-12-29T17:41:41;25.30;;;3.42;;
71777;SDS011;59609;52.430;4.668;2022-12-29T17:44:08;15.63;;;2.22;;
71777;SDS011;59609;52.430;4.668;2022-12-29T17:46:42;21.77;;;2.70;;
71777;SDS011;59609;52.430;4.668;2022-12-29T17:49:12;28.60;;;2.65;;
71777;SDS011;59609;52.430;4.668;2022-12-29T17:51:39;17.55;;;2.40;;
71777;SDS011;59609;52.430;4.668;2022-12-29T17:54:05;15.73;;;2.67;;
71777;SDS011;59609;52.430;4.668;2022-12-29T17:56:33;27.90;;;3.58;;
71777;SDS011;59609;52.430;4.668;2022-12-29T17:58:58;12.98;;;2.65;;
71777;SDS011;59609;52.430;4.668;2022-12-29T18:01:24;20.85;;;2.47;;
71777;SDS011;59609;52.430;4.668;2022-12-29T18:03:50;22.02;;;2.58;;